Time;durP1;ratioP1;P1;durP2;ratioP2;P2;SDS_P1;SDS_P2;PMS_P1;PMS_P2;Temp;Humidity;BMP_temperature;BMP_pressure;BME280_temperature;BME280_humidity;BME280_pressure;Samples;Min_cycle;Max_cycle;Signal;HPM_P1;HPM_P2
2022/05/11 00:01:02;;;;;;;11.75;6.87;;;;;;;8.10;54.07;99682.30;1644018;85;21043;-42
2022/05/11 00:03:29;;;;;;;16.02;6.80;;;;;;;8.08;54.20;99684.00;1671166;85;21232;-41
2022/05/11 00:05:58;;;;;;;12.85;6.65;;;;;;;8.05;54.28;99679.80;1670969;85;21569;-42
2022/05/11 00:08:24;;;;;;;12.60;6.65;;;;;;;8.03;53.89;99685.56;1658204;86;20954;-42
2022/05/11 00:10:51;;;;;;;13.03;6.47;;;;;;;8.02;53.85;99688.59;1709465;84;20992;-42
2022/05/11 00:13:18;;;;;;;10.93;6.42;;;;;;;8.01;54.01;99682.39;1709478;84;21051;-42
2022/05/11 00:15:45;;;;;;;11.93;7.25;;;;;;;8.01;54.06;99685.09;1709442;84;21259;-42
2022/05/11 00:18:11;;;;;;;11.85;7.25;;;;;;;8.00;53.82;99683.51;1709499;84;21291;-42
2022/05/11 00:20:39;;;;;;;12.18;6.17;;;;;;;7.98;53.78;99684.98;1709590;84;20937;-42
2022/05/11 00:23:06;;;;;;;14.65;6.47;;;;;;;7.96;53.95;99677.20;1709388;84;21507;-42
2022/05/11 00:25:32;;;;;;;9.85;6.30;;;;;;;7.95;54.49;99685.07;1709563;84;21008;-42
2022/05/11 00:28:00;;;;;;;8.05;5.78;;;;;;;7.94;55.67;99679.44;1709534;84;21252;-42
2022/05/11 00:30:29;;;;;;;11.93;6.78;;;;;;;7.93;56.35;99676.53;1709442;84;20993;-42
2022/05/11 00:32:58;;;;;;;10.35;6.62;;;;;;;7.92;56.67;99684.41;1709530;84;20940;-42
2022/05/11 00:35:26;;;;;;;11.22;5.97;;;;;;;7.91;56.61;99677.97;1709406;84;21040;-42
2022/05/11 00:37:53;;;;;;;12.90;6.65;;;;;;;7.89;57.05;99671.55;1709584;84;21047;-41
2022/05/11 00:40:21;;;;;;;12.55;7.12;;;;;;;7.88;57.20;99674.61;1709146;84;23132;-41
2022/05/11 00:42:47;;;;;;;11.08;6.20;;;;;;;7.86;57.29;99678.98;1723745;81;21077;-42
2022/05/11 00:45:14;;;;;;;12.90;6.80;;;;;;;7.84;57.81;99675.25;1734860;82;20997;-42
2022/05/11 00:47:46;;;;;;;10.30;6.28;;;;;;;7.87;58.26;99679.21;1735014;82;21072;-41
2022/05/11 00:50:20;;;;;;;11.35;6.40;;;;;;;7.85;58.06;99680.09;1734944;82;21033;-41
2022/05/11 00:53:09;;;;;;;12.03;6.40;;;;;;;7.83;58.33;99676.40;1714561;82;21863;-41
2022/05/11 00:55:41;;;;;;;12.47;6.20;;;;;;;7.82;58.74;99683.47;1735013;82;20922;-41
2022/05/11 00:58:18;;;;;;;10.43;6.35;;;;;;;7.80;58.96;99684.34;1734472;82;21012;-40
2022/05/11 01:00:45;;;;;;;10.53;6.00;;;;;;;7.78;59.28;99683.91;1735157;82;21002;-40
2022/05/11 01:03:19;;;;;;;13.25;6.53;;;;;;;7.76;59.49;99682.88;1735108;82;21037;-41
2022/05/11 01:05:46;;;;;;;13.60;6.95;;;;;;;7.77;59.56;99683.12;1734521;82;21160;-41
2022/05/11 01:08:14;;;;;;;12.40;6.40;;;;;;;7.75;59.65;99681.86;1734814;82;21026;-41
2022/05/11 01:10:41;;;;;;;10.38;6.53;;;;;;;7.74;59.78;99686.49;1735337;82;20929;-41
2022/05/11 01:13:11;;;;;;;11.48;6.25;;;;;;;7.71;59.93;99683.09;1734893;82;21065;-40
2022/05/11 01:15:39;;;;;;;13.78;6.87;;;;;;;7.69;60.04;99677.25;1735029;82;21536;-41
2022/05/11 01:18:08;;;;;;;15.48;7.33;;;;;;;7.69;60.19;99683.20;1734854;82;21242;-40
2022/05/11 01:20:36;;;;;;;10.48;6.22;;;;;;;7.70;60.13;99678.80;1735241;82;20925;-41
2022/05/11 01:23:44;;;;;;;10.35;6.33;;;;;;;7.71;59.89;99680.95;1734971;82;20945;-40
2022/05/11 01:26:11;;;;;;;10.60;6.47;;;;;;;7.71;59.49;99679.59;1734845;82;20938;-41
2022/05/11 01:28:46;;;;;;;10.23;6.40;;;;;;;7.64;59.68;99670.72;1734938;82;21073;-40
2022/05/11 01:31:14;;;;;;;11.25;6.10;;;;;;;7.62;59.77;99668.10;1735119;82;21555;-40
2022/05/11 01:33:45;;;;;;;12.70;5.92;;;;;;;7.61;59.83;99669.22;1735087;82;20998;-42
2022/05/11 01:36:28;;;;;;;11.70;6.65;;;;;;;7.62;59.69;99665.41;1735341;82;21013;-42
2022/05/11 01:39:03;;;;;;;13.53;6.83;;;;;;;7.60;59.40;99664.38;1735059;82;21051;-42
2022/05/11 01:41:38;;;;;;;12.85;6.75;;;;;;;7.60;59.40;99666.31;1735390;82;21590;-41
2022/05/11 01:44:09;;;;;;;10.65;6.30;;;;;;;7.58;59.26;99661.23;1742714;81;21139;-41
2022/05/11 01:46:38;;;;;;;11.00;6.55;;;;;;;7.55;58.88;99663.23;1749006;82;21009;-41
2022/05/11 01:49:06;;;;;;;10.45;5.60;;;;;;;7.54;59.41;99662.23;1748853;82;20977;-41
2022/05/11 01:51:33;;;;;;;10.15;5.58;;;;;;;7.52;59.71;99661.20;1748810;82;21005;-41
2022/05/11 01:54:00;;;;;;;11.85;6.30;;;;;;;7.52;59.80;99659.06;1748939;82;21084;-41
2022/05/11 01:56:27;;;;;;;10.85;6.72;;;;;;;7.50;59.72;99659.42;1748845;82;21205;-42
2022/05/11 01:58:54;;;;;;;10.25;6.28;;;;;;;7.50;60.12;99659.98;1748736;82;21576;-41
2022/05/11 02:01:25;;;;;;;11.08;6.28;;;;;;;7.48;60.58;99657.59;1748749;82;20914;-41
2022/05/11 02:03:51;;;;;;;;;;;;;;;7.51;60.88;99655.58;1751490;82;20987;-42
2022/05/11 02:09:04;;;;;;;11.45;6.00;;;;;;;7.60;61.11;99658.98;1749002;82;21128;-41
2022/05/11 02:11:31;;;;;;;8.73;5.47;;;;;;;7.63;60.78;99656.20;1748718;82;21277;-42
2022/05/11 02:13:58;;;;;;;9.70;6.12;;;;;;;7.66;60.59;99659.02;1749024;82;21028;-42
2022/05/11 02:16:26;;;;;;;12.58;6.33;;;;;;;7.68;60.66;99658.13;1748939;82;21041;-42
2022/05/11 02:18:55;;;;;;;10.45;5.72;;;;;;;7.71;60.98;99649.91;1749145;82;21021;-49
2022/05/11 02:21:23;;;;;;;8.73;6.00;;;;;;;7.72;60.99;99655.55;1749144;82;21280;-42
2022/05/11 02:23:50;;;;;;;16.32;6.85;;;;;;;7.72;61.05;99656.89;1749137;82;20942;-41
2022/05/11 02:26:19;;;;;;;12.45;7.03;;;;;;;7.69;61.16;99653.52;1748771;82;20878;-42
2022/05/11 02:28:50;;;;;;;8.95;6.30;;;;;;;7.68;61.04;99657.34;1748933;82;21534;-41
2022/05/11 02:31:18;;;;;;;10.70;5.78;;;;;;;7.65;60.87;99658.02;1749166;82;21017;-42
2022/05/11 02:33:45;;;;;;;14.47;6.70;;;;;;;7.62;60.86;99660.80;1749178;82;21480;-41
2022/05/11 02:36:13;;;;;;;11.20;6.53;;;;;;;7.57;61.02;99656.95;1748805;82;21027;-41
2022/05/11 02:38:42;;;;;;;12.43;6.10;;;;;;;7.55;60.81;99660.53;1749265;82;20961;-41
2022/05/11 02:41:08;;;;;;;10.15;6.45;;;;;;;7.52;60.80;99659.06;1749008;82;20982;-41
2022/05/11 02:43:35;;;;;;;10.85;5.92;;;;;;;7.49;60.70;99657.05;1749118;82;21831;-41
2022/05/11 02:46:02;;;;;;;10.90;6.03;;;;;;;7.46;60.53;99664.43;1749221;82;21523;-41
2022/05/11 02:48:32;;;;;;;11.22;6.37;;;;;;;7.43;60.55;99656.45;1748957;82;21611;-41
2022/05/11 02:50:59;;;;;;;10.30;5.87;;;;;;;7.40;60.59;99649.03;1749347;82;20961;-41
2022/05/11 02:53:29;;;;;;;11.88;5.90;;;;;;;7.39;60.61;99656.89;1749013;82;21044;-40
2022/05/11 02:55:55;;;;;;;12.60;5.80;;;;;;;7.36;60.86;99651.58;1749382;82;21010;-42
2022/05/11 02:58:25;;;;;;;9.45;5.90;;;;;;;7.36;61.08;99654.28;1749146;82;22113;-42
2022/05/11 03:00:53;;;;;;;11.55;5.65;;;;;;;7.36;61.26;99651.58;1749226;82;21072;-42
2022/05/11 03:03:20;;;;;;;10.93;5.47;;;;;;;7.40;61.37;99657.13;1749004;82;20953;-42
2022/05/11 03:05:47;;;;;;;9.43;5.58;;;;;;;7.50;61.54;99652.67;1749089;82;21037;-41
2022/05/11 03:08:14;;;;;;;13.13;5.85;;;;;;;7.62;61.23;99646.52;1748979;82;21096;-41
2022/05/11 03:10:41;;;;;;;11.43;6.12;;;;;;;7.68;61.20;99645.20;1749211;82;21139;-41
2022/05/11 03:13:09;;;;;;;9.80;5.70;;;;;;;7.73;60.99;99647.12;1749013;82;20993;-42
2022/05/11 03:15:36;;;;;;;11.55;5.50;;;;;;;7.80;59.99;99649.27;1748863;82;21009;-41
2022/05/11 03:18:04;;;;;;;11.05;5.67;;;;;;;7.87;58.75;99648.17;1749189;82;20989;-42
2022/05/11 03:20:31;;;;;;;8.93;5.87;;;;;;;7.93;57.34;99653.59;1748906;82;21060;-42
2022/05/11 03:22:57;;;;;;;13.35;6.50;;;;;;;7.97;56.27;99657.19;1748987;82;21222;-42
2022/05/11 03:25:26;;;;;;;12.03;5.83;;;;;;;8.02;54.95;99656.98;1748891;82;20968;-42
2022/05/11 03:27:53;;;;;;;8.60;5.33;;;;;;;8.08;54.10;99657.00;1749127;82;20986;-42
2022/05/11 03:30:21;;;;;;;10.93;5.15;;;;;;;8.13;53.28;99660.04;1748864;82;21053;-42
2022/05/11 03:35:33;;;;;;;8.60;5.15;;;;;;;8.21;52.43;99654.53;1749021;82;21145;-42
2022/05/11 03:38:00;;;;;;;9.98;5.33;;;;;;;8.25;51.84;99656.78;1748990;82;20957;-42
2022/05/11 03:40:26;;;;;;;9.03;5.17;;;;;;;8.33;51.32;99655.70;1749208;81;20969;-43
2022/05/11 03:42:53;;;;;;;9.15;5.25;;;;;;;8.36;50.95;99658.52;1749522;82;21001;-42
2022/05/11 03:45:23;;;;;;;13.10;5.90;;;;;;;8.42;50.56;99660.44;1749140;82;21017;-42
2022/05/11 03:47:50;;;;;;;11.35;5.12;;;;;;;8.48;50.55;99664.47;1749647;82;21208;-42
2022/05/11 03:50:20;;;;;;;12.10;5.30;;;;;;;8.54;50.20;99666.61;1748944;82;20989;-42
2022/05/11 03:52:47;;;;;;;7.62;4.70;;;;;;;8.63;50.12;99665.14;1749146;82;20993;-42
2022/05/11 03:55:14;;;;;;;9.15;4.53;;;;;;;8.68;50.46;99661.66;1749017;82;21084;-42
2022/05/11 03:57:41;;;;;;;9.85;4.95;;;;;;;8.76;50.73;99659.97;1749121;82;21046;-42
2022/05/11 04:00:12;;;;;;;8.78;5.08;;;;;;;8.81;50.83;99663.00;1749062;82;21128;-42
2022/05/11 04:02:40;;;;;;;10.98;4.60;;;;;;;8.85;50.79;99659.28;1749239;82;20933;-42
2022/05/11 04:05:09;;;;;;;14.60;5.20;;;;;;;8.91;50.55;99659.25;1748933;82;21004;-42
2022/05/11 04:07:36;;;;;;;;;;;;;;;8.99;50.43;99662.97;1751961;82;20982;-42
2022/05/11 04:10:04;;;;;;;8.85;3.92;;;;;;;9.08;50.27;99660.36;1749051;82;20132;-42
2022/05/11 04:12:31;;;;;;;9.78;4.33;;;;;;;9.08;50.32;99660.36;1749371;82;21205;-42
2022/05/11 04:14:58;;;;;;;9.73;4.67;;;;;;;9.23;49.69;99658.06;1748982;82;20961;-42
2022/05/11 04:17:25;;;;;;;8.60;4.08;;;;;;;9.36;49.19;99660.95;1749054;82;20981;-42
2022/05/11 04:19:51;;;;;;;8.70;3.85;;;;;;;9.48;49.07;99659.56;1749028;82;21068;-42
2022/05/11 04:22:18;;;;;;;7.20;3.30;;;;;;;9.59;48.32;99662.77;1748895;82;21079;-42
2022/05/11 04:24:45;;;;;;;6.67;3.17;;;;;;;9.73;46.40;99663.72;1749078;82;21205;-42
2022/05/11 04:27:13;;;;;;;13.08;3.83;;;;;;;9.85;46.09;99660.17;1749173;82;21008;-42
2022/05/11 04:29:40;;;;;;;6.72;3.55;;;;;;;9.98;46.31;99661.09;1749310;82;20961;-42
2022/05/11 04:32:08;;;;;;;9.60;3.70;;;;;;;10.13;45.46;99658.19;1749089;82;20994;-42
2022/05/11 04:34:40;;;;;;;8.33;3.92;;;;;;;10.25;45.41;99650.02;1749390;82;21033;-42
2022/05/11 04:37:07;;;;;;;9.50;4.15;;;;;;;10.40;45.76;99653.30;1749436;82;21086;-42
2022/05/11 04:39:34;;;;;;;6.92;3.62;;;;;;;10.53;44.30;99656.69;1749127;82;21009;-42
2022/05/11 04:42:01;;;;;;;9.28;3.25;;;;;;;10.63;44.36;99652.66;1749198;82;20977;-42
2022/05/11 04:44:28;;;;;;;6.37;3.42;;;;;;;10.72;42.98;99658.67;1749199;81;21539;-42
2022/05/11 04:46:56;;;;;;;8.08;3.67;;;;;;;10.79;42.55;99654.78;1749278;82;21084;-42
2022/05/11 04:49:23;;;;;;;9.05;3.30;;;;;;;10.87;42.87;99659.21;1749336;82;21236;-42
2022/05/11 04:52:00;;;;;;;5.30;3.12;;;;;;;10.95;42.71;99652.00;1749122;82;21535;-42
2022/05/11 04:54:27;;;;;;;6.08;2.92;;;;;;;11.04;42.76;99656.66;1749096;82;21504;-42
2022/05/11 04:56:54;;;;;;;3.67;2.50;;;;;;;11.14;41.70;99654.17;1749149;82;21033;-42
2022/05/11 04:59:22;;;;;;;7.78;3.10;;;;;;;11.23;41.08;99653.39;1749039;82;21002;-42
2022/05/11 05:01:49;;;;;;;6.35;2.67;;;;;;;11.32;41.01;99654.56;1749024;82;21252;-42
2022/05/11 05:04:15;;;;;;;10.82;2.80;;;;;;;11.41;40.11;99659.77;1748978;82;20984;-42
2022/05/11 05:06:42;;;;;;;6.80;3.17;;;;;;;11.49;39.66;99655.48;1749017;82;20973;-42
2022/05/11 05:09:09;;;;;;;6.33;3.05;;;;;;;11.58;38.77;99654.69;1749070;82;21045;-42
2022/05/11 05:11:36;;;;;;;4.70;2.72;;;;;;;11.69;38.89;99658.97;1749128;82;21029;-42
2022/05/11 05:14:08;;;;;;;7.12;2.90;;;;;;;11.80;38.45;99664.64;1749079;82;21787;-42
2022/05/11 05:16:33;;;;;;;4.83;2.80;;;;;;;11.90;37.58;99659.98;1748556;82;20933;-42
2022/05/11 05:19:01;;;;;;;3.65;2.55;;;;;;;11.99;37.30;99665.96;1749044;82;21116;-42
2022/05/11 05:21:28;;;;;;;4.40;2.27;;;;;;;12.05;37.65;99661.80;1748766;82;21572;-42
2022/05/11 05:23:55;;;;;;;9.60;2.92;;;;;;;12.13;37.20;99662.92;1710602;83;21534;-42
2022/05/11 05:26:21;;;;;;;6.78;2.80;;;;;;;12.19;37.39;99659.33;1710756;83;21197;-42
2022/05/11 05:31:34;;;;;;;5.87;2.75;;;;;;;12.37;37.14;99667.20;1710825;83;20980;-42
2022/05/11 05:34:01;;;;;;;4.80;2.70;;;;;;;12.45;37.05;99667.52;1710667;83;20977;-42
2022/05/11 05:36:36;;;;;;;4.22;2.37;;;;;;;12.55;36.35;99674.28;1710762;83;21048;-42
2022/05/11 05:39:04;;;;;;;3.80;2.15;;;;;;;12.65;36.80;99666.86;1711025;83;21511;-42
2022/05/11 05:41:31;;;;;;;4.90;2.27;;;;;;;12.77;36.81;99664.52;1710728;83;21040;-42
2022/05/11 05:43:58;;;;;;;3.45;2.30;;;;;;;12.90;36.15;99657.70;1710513;83;21033;-42
2022/05/11 05:46:25;;;;;;;5.37;2.47;;;;;;;13.04;35.49;99660.63;1707536;83;21061;-43
2022/05/11 05:48:52;;;;;;;5.58;2.20;;;;;;;13.16;35.23;99655.58;1707628;84;21001;-43
2022/05/11 05:51:20;;;;;;;5.22;2.40;;;;;;;13.26;34.98;99656.30;1707530;84;22132;-42
2022/05/11 05:53:48;;;;;;;3.20;2.20;;;;;;;13.37;35.66;99651.17;1706448;84;20998;-42
2022/05/11 05:56:15;;;;;;;6.67;2.60;;;;;;;13.51;34.79;99649.79;1682148;85;21097;-42
2022/05/11 05:58:44;;;;;;;6.40;2.05;;;;;;;13.61;34.97;99645.02;1682241;85;21049;-43
2022/05/11 06:01:11;;;;;;;4.30;2.47;;;;;;;13.71;34.80;99651.95;1682698;85;21591;-43
2022/05/11 06:03:38;;;;;;;5.03;2.37;;;;;;;13.82;34.72;99652.06;1682142;85;23155;-43
2022/05/11 06:06:08;;;;;;;3.30;2.02;;;;;;;13.92;34.27;99644.58;1682290;85;21049;-43
2022/05/11 06:08:36;;;;;;;3.77;2.13;;;;;;;14.01;33.82;99643.69;1682593;85;20958;-43
2022/05/11 06:11:04;;;;;;;3.90;2.30;;;;;;;14.11;33.11;99639.50;1682402;85;21733;-43
2022/05/11 06:13:30;;;;;;;5.37;1.60;;;;;;;14.18;33.36;99642.30;1682326;85;21121;-43
2022/05/11 06:15:57;;;;;;;3.17;1.60;;;;;;;14.26;32.83;99641.98;1682120;85;21136;-42
2022/05/11 06:18:26;;;;;;;4.60;1.90;;;;;;;14.37;32.18;99644.04;1682198;85;21045;-42
2022/05/11 06:20:52;;;;;;;3.42;1.92;;;;;;;14.48;32.57;99638.86;1682264;85;21105;-43
2022/05/11 06:23:21;;;;;;;3.77;1.80;;;;;;;14.59;32.28;99636.21;1682095;85;21036;-43
2022/05/11 06:25:51;;;;;;;3.27;1.80;;;;;;;14.67;31.17;99629.05;1682303;85;21121;-43
2022/05/11 06:28:19;;;;;;;4.25;1.95;;;;;;;14.71;31.23;99635.34;1682271;85;21149;-43
2022/05/11 06:30:47;;;;;;;4.78;2.20;;;;;;;14.75;31.66;99633.98;1682384;85;20989;-43
2022/05/11 06:33:14;;;;;;;3.45;1.90;;;;;;;14.82;31.68;99638.69;1682227;85;21045;-43
2022/05/11 06:35:41;;;;;;;3.58;1.67;;;;;;;14.93;31.46;99635.45;1682110;85;21002;-43
2022/05/11 06:38:08;;;;;;;7.78;2.50;;;;;;;15.05;31.58;99629.68;1682107;85;21073;-43
2022/05/11 06:40:35;;;;;;;5.25;1.77;;;;;;;15.15;31.76;99633.80;1682375;85;21119;-43
2022/05/11 06:43:02;;;;;;;4.83;2.02;;;;;;;15.27;30.71;99629.19;1682141;85;21064;-43
2022/05/11 06:45:29;;;;;;;3.12;2.02;;;;;;;15.40;31.10;99633.13;1683475;84;20998;-43
2022/05/11 06:47:56;;;;;;;4.37;1.80;;;;;;;15.45;30.23;99622.61;1710538;83;21499;-43
2022/05/11 06:50:24;;;;;;;5.65;2.10;;;;;;;15.52;30.34;99621.31;1700771;84;21132;-43
2022/05/11 06:52:53;;;;;;;4.90;2.27;;;;;;;15.61;30.36;99627.19;1710474;83;21232;-43
2022/05/11 07:00:50;;;;;;;7.08;2.30;;;;;;;15.87;30.24;99617.89;1700640;84;21008;-43
2022/05/11 07:03:18;;;;;;;5.72;2.15;;;;;;;15.99;29.88;99613.40;1710220;83;21060;-43
2022/05/11 07:05:47;;;;;;;4.97;2.33;;;;;;;16.08;29.60;99613.80;1700675;84;21625;-43
2022/05/11 07:08:14;;;;;;;4.65;2.30;;;;;;;16.20;29.10;99608.53;1710142;83;21515;-43
2022/05/11 07:12:17;;;;;;;5.00;2.12;;;;;;;16.27;28.07;99605.78;1700570;84;21040;-43
2022/05/11 07:13:16;;;;;;;5.35;2.30;;;;;;;16.30;28.35;99613.81;1706151;83;21095;-43
2022/05/11 07:15:45;;;;;;;3.60;2.33;;;;;;;16.29;28.37;99599.92;1700558;84;21100;-42
2022/05/11 07:18:12;;;;;;;4.47;2.52;;;;;;;16.28;28.94;99599.14;1710395;83;21539;-41
2022/05/11 07:20:39;;;;;;;2.90;1.98;;;;;;;16.29;28.57;99594.45;1700581;84;21036;-42
2022/05/11 07:23:07;;;;;;;2.50;1.70;;;;;;;16.32;28.95;99593.66;1710277;83;21004;-42
2022/05/11 07:25:35;;;;;;;4.08;2.02;;;;;;;16.44;28.25;99596.80;1700746;84;21127;-43
2022/05/11 07:28:03;;;;;;;4.58;1.87;;;;;;;16.56;28.78;99597.55;1710206;83;21547;-43
2022/05/11 07:30:36;;;;;;;4.27;1.90;;;;;;;16.72;28.68;99586.99;1700839;84;21254;-43
2022/05/11 07:33:03;;;;;;;2.30;1.70;;;;;;;16.89;28.46;99585.56;1710171;83;20897;-43
2022/05/11 07:35:30;;;;;;;3.70;2.02;;;;;;;17.07;27.69;99594.33;1700658;84;21110;-43
2022/05/11 07:37:59;;;;;;;5.17;2.05;;;;;;;17.20;27.88;99584.48;1710364;83;21083;-43
2022/05/11 07:40:26;;;;;;;3.95;1.72;;;;;;;17.33;27.62;99581.51;1700753;84;21048;-43
2022/05/11 07:42:54;;;;;;;6.30;2.05;;;;;;;17.43;27.98;99573.04;1710391;83;21148;-43
2022/05/11 07:45:23;;;;;;;5.50;1.65;;;;;;;17.56;27.10;99568.06;1700487;83;20989;-43
2022/05/11 07:47:49;;;;;;;4.92;2.00;;;;;;;17.62;26.83;99569.20;1710594;83;20996;-43
2022/05/11 07:50:17;;;;;;;3.17;1.80;;;;;;;17.66;26.32;99570.58;1700619;84;21845;-43
2022/05/11 07:52:46;;;;;;;4.50;2.00;;;;;;;17.67;25.95;99561.17;1710405;83;21051;-42
2022/05/11 07:55:16;;;;;;;3.95;2.30;;;;;;;17.66;25.86;99563.72;1700479;84;21067;-43
2022/05/11 08:00:29;;;;;;;3.00;1.70;;;;;;;17.84;27.21;99560.84;1700658;84;21625;-43
2022/05/11 08:02:56;;;;;;;2.80;1.57;;;;;;;17.97;26.10;99568.19;1710353;83;21068;-43
2022/05/11 08:05:23;;;;;;;3.67;1.70;;;;;;;18.13;26.26;99567.67;1700490;84;21080;-43
2022/05/11 08:07:53;;;;;;;4.85;1.60;;;;;;;18.28;26.01;99569.11;1710180;83;21290;-43
2022/05/11 08:10:31;;;;;;;2.95;1.62;;;;;;;18.38;25.31;99570.98;1700531;84;21051;-43
2022/05/11 08:13:00;;;;;;;3.15;1.70;;;;;;;18.41;24.87;99563.89;1709634;83;20969;-43
2022/05/11 08:15:31;;;;;;;3.83;1.80;;;;;;;18.37;24.96;99568.63;1700588;84;21013;-43
2022/05/11 08:17:59;;;;;;;7.58;1.95;;;;;;;18.33;25.32;99553.58;1710120;83;21035;-43
2022/05/11 08:20:30;;;;;;;3.92;1.70;;;;;;;18.42;25.85;99555.25;1700820;84;21210;-43
2022/05/11 08:22:58;;;;;;;2.00;1.55;;;;;;;18.58;25.70;99556.11;1710064;83;20941;-43
2022/05/11 08:25:27;;;;;;;3.20;1.90;;;;;;;18.72;24.92;99552.43;1700334;84;21044;-43
2022/05/11 08:27:54;;;;;;;2.93;1.77;;;;;;;18.80;25.31;99556.65;1710371;83;20972;-43
2022/05/11 08:33:23;;;;;;;4.95;1.50;;;;;;;19.05;24.75;99544.19;1710415;83;21241;-43
2022/05/11 08:35:54;;;;;;;2.47;1.65;;;;;;;19.14;24.10;99542.30;1700711;84;21040;-43
2022/05/11 08:38:22;;;;;;;3.33;1.80;;;;;;;19.10;23.87;99541.57;1708797;83;21015;-43
2022/05/11 08:40:57;;;;;;;7.60;2.30;;;;;;;19.13;24.57;99540.73;1700978;84;21044;-43
2022/05/11 08:43:23;;;;;;;4.00;1.75;;;;;;;19.26;24.86;99543.73;1703876;83;20989;-43
2022/05/11 08:46:20;;;;;;;2.40;1.67;;;;;;;19.41;24.33;99538.97;1700741;83;21144;-43
2022/05/11 08:49:03;;;;;;;2.98;1.70;;;;;;;19.59;24.06;99535.23;1710304;83;21053;-43
2022/05/11 08:51:38;;;;;;;3.98;1.90;;;;;;;19.74;24.39;99527.73;1700585;84;21056;-43
2022/05/11 08:54:22;;;;;;;4.65;1.72;;;;;;;19.90;23.48;99523.72;1710000;83;21096;-43
2022/05/11 08:56:52;;;;;;;4.97;1.80;;;;;;;19.97;23.63;99517.34;1700636;84;21071;-43
2022/05/11 08:59:24;;;;;;;4.15;1.98;;;;;;;20.04;23.72;99523.33;1710259;83;21239;-43
2022/05/11 09:02:07;;;;;;;3.65;2.12;;;;;;;20.17;23.85;99518.77;1700401;84;20973;-43
2022/05/11 09:04:51;;;;;;;5.35;2.00;;;;;;;20.28;24.04;99522.12;1710019;83;21392;-43
2022/05/11 09:07:18;;;;;;;4.20;2.10;;;;;;;20.42;23.53;99517.77;1660285;85;21032;-43
2022/05/11 09:09:45;;;;;;;4.30;1.87;;;;;;;20.41;22.60;99525.06;1700470;84;21112;-43
2022/05/11 09:12:12;;;;;;;4.12;1.90;;;;;;;20.39;22.07;99513.08;1710018;83;21313;-43
2022/05/11 09:14:56;;;;;;;4.28;2.05;;;;;;;20.37;22.74;99524.53;1700412;84;21073;-43
2022/05/11 09:17:29;;;;;;;4.53;1.90;;;;;;;20.44;23.02;99516.72;1710369;83;21506;-43
2022/05/11 09:20:18;;;;;;;4.60;2.20;;;;;;;20.46;24.01;99508.05;1700460;84;20996;-43
2022/05/11 09:22:57;;;;;;;4.50;2.42;;;;;;;20.47;23.76;99511.77;1710154;83;21092;-43
2022/05/11 09:25:29;;;;;;;3.17;1.87;;;;;;;20.56;23.44;99500.97;1672880;84;21121;-42
2022/05/11 09:28:26;;;;;;;4.65;1.98;;;;;;;20.65;22.85;99499.02;1710450;83;21523;-43
2022/05/11 09:31:06;;;;;;;21.95;14.83;;;;;;;20.74;22.66;99495.88;1700595;84;21052;-43
2022/05/11 09:33:38;;;;;;;6.55;3.17;;;;;;;20.94;22.38;99494.48;1710057;83;21017;-43
2022/05/11 09:36:09;;;;;;;5.17;1.90;;;;;;;21.04;22.35;99487.97;1700396;84;21096;-43
2022/05/11 09:38:43;;;;;;;4.03;1.77;;;;;;;21.14;21.35;99495.27;1710329;83;21208;-43
2022/05/11 09:41:22;;;;;;;4.30;1.95;;;;;;;21.10;20.56;99493.16;1700291;84;21563;-43
2022/05/11 09:43:55;;;;;;;3.00;1.70;;;;;;;20.92;21.03;99480.34;1710116;83;20941;-43
2022/05/11 09:46:33;;;;;;;5.08;2.25;;;;;;;20.72;22.65;99490.63;1706430;83;21090;-43
2022/05/11 09:49:10;;;;;;;2.60;1.80;;;;;;;20.62;22.44;99492.36;1720767;83;21044;-43
2022/05/11 09:51:50;;;;;;;3.80;1.77;;;;;;;20.58;22.96;99491.66;1691920;84;21896;-43
2022/05/11 09:54:47;;;;;;;3.27;1.70;;;;;;;20.65;23.23;99493.51;1691936;84;20953;-43
2022/05/11 10:00:36;;;;;;;3.15;1.67;;;;;;;21.07;22.62;99480.22;1779491;79;22659;-43
2022/05/11 10:03:07;;;;;;;6.53;2.17;;;;;;;21.15;22.81;99488.55;1738847;82;21014;-43
2022/05/11 10:05:41;;;;;;;3.20;2.10;;;;;;;21.29;21.61;99480.56;1739238;82;21542;-43
2022/05/11 10:08:31;;;;;;;5.37;1.90;;;;;;;21.27;22.10;99476.66;1735851;81;20946;-43
2022/05/11 10:11:18;;;;;;;3.60;1.40;;;;;;;21.37;23.01;99480.56;1739448;82;20974;-43
2022/05/11 10:21:50;;;;;;;4.22;1.95;;;;;;;21.47;22.09;99476.00;1739156;82;20942;-43
2022/05/11 10:22:35;;;;;;;3.08;1.60;;;;;;;21.49;22.67;99476.36;1738803;82;21556;-43
2022/05/11 10:25:18;;;;;;;4.55;1.82;;;;;;;21.74;23.03;99472.38;1739031;82;20974;-43
2022/05/11 10:28:06;;;;;;;3.47;1.70;;;;;;;21.95;20.93;99460.84;1739095;82;21011;-43
2022/05/11 10:30:48;;;;;;;2.70;2.02;;;;;;;21.98;21.53;99457.20;1739223;82;20994;-43
2022/05/11 10:33:54;;;;;;;3.20;1.60;;;;;;;22.10;22.29;99452.97;1739042;82;21082;-43
2022/05/11 10:36:35;;;;;;;6.37;2.00;;;;;;;22.31;21.79;99453.78;1738781;82;21538;-43
2022/05/11 10:39:29;;;;;;;4.00;2.00;;;;;;;22.42;20.86;99449.33;1738932;82;21021;-43
2022/05/11 10:42:22;;;;;;;1.82;1.57;;;;;;;22.41;22.25;99453.33;1738956;82;21021;-43
2022/05/11 10:45:21;;;;;;;3.65;2.02;;;;;;;22.54;21.95;99448.60;1739248;82;21093;-43
2022/05/11 10:48:13;;;;;;;6.33;2.02;;;;;;;22.88;21.01;99438.37;1738891;82;21891;-43
2022/05/11 10:51:01;;;;;;;5.17;2.00;;;;;;;23.24;21.50;99426.97;1738870;82;20994;-43
2022/05/11 10:53:42;;;;;;;3.85;1.90;;;;;;;23.42;20.93;99436.89;1738928;82;21090;-43
2022/05/11 10:56:42;;;;;;;4.03;1.85;;;;;;;23.54;21.28;99439.48;1739018;82;20991;-43
2022/05/11 10:59:36;;;;;;;4.92;2.08;;;;;;;23.76;19.96;99430.05;1744716;81;21579;-43
2022/05/11 11:02:39;;;;;;;5.55;1.90;;;;;;;23.68;19.83;99427.34;1743697;81;23358;-43
2022/05/11 11:05:20;;;;;;;3.70;1.98;;;;;;;23.71;20.47;99423.70;1743944;81;20958;-43
2022/05/11 11:08:14;;;;;;;1.92;1.52;;;;;;;24.02;20.98;99425.19;1744252;81;20903;-43
2022/05/11 11:11:05;;;;;;;3.33;1.60;;;;;;;24.27;20.32;99429.88;1743650;82;21390;-43
2022/05/11 11:13:59;;;;;;;3.67;1.70;;;;;;;24.40;19.48;99427.81;1743352;81;21042;-43
2022/05/11 11:16:32;;;;;;;3.15;1.62;;;;;;;24.28;19.22;99420.36;1743315;81;21427;-43
2022/05/11 11:18:58;;;;;;;3.67;1.65;;;;;;;24.15;19.33;99421.78;1742826;81;21532;-43
2022/05/11 11:21:25;;;;;;;3.60;1.72;;;;;;;24.17;19.84;99415.80;1743523;81;21532;-43
2022/05/11 11:24:22;;;;;;;3.02;1.77;;;;;;;24.25;19.06;99407.41;1743613;82;21073;-44
2022/05/11 11:26:57;;;;;;;5.20;1.55;;;;;;;24.36;19.54;99405.62;1743355;81;21022;-44
2022/05/11 11:29:36;;;;;;;2.75;1.67;;;;;;;24.59;19.95;99397.61;1743074;82;23205;-43
2022/05/11 11:32:17;;;;;;;6.50;1.80;;;;;;;24.86;20.25;99390.67;1743511;82;20950;-43
2022/05/11 11:34:50;;;;;;;2.60;1.70;;;;;;;25.08;19.09;99388.63;1743759;82;20977;-44
2022/05/11 11:37:38;;;;;;;2.80;1.50;;;;;;;25.28;18.97;99387.61;1707625;83;21029;-43
2022/05/11 11:40:21;;;;;;;3.45;1.60;;;;;;;25.40;18.13;99396.45;1743381;81;21053;-43
2022/05/11 11:42:47;;;;;;;3.20;1.57;;;;;;;25.28;18.40;99393.77;1707698;84;21097;-44
2022/05/11 11:45:35;;;;;;;4.45;1.70;;;;;;;25.33;18.82;99388.40;1743517;81;20961;-44
2022/05/11 11:48:23;;;;;;;2.40;1.60;;;;;;;25.47;18.89;99386.42;1743599;82;21017;-44
2022/05/11 11:50:53;;;;;;;3.05;1.80;;;;;;;25.63;18.58;99386.02;1707747;83;21076;-44
2022/05/11 11:53:52;;;;;;;5.28;1.95;;;;;;;25.65;18.63;99384.34;1743735;81;21065;-44
2022/05/11 11:56:31;;;;;;;2.17;1.70;;;;;;;25.68;18.94;99382.63;1665912;84;21541;-43
2022/05/11 11:59:13;;;;;;;5.12;1.57;;;;;;;25.76;18.25;99379.09;1736175;81;21523;-43
2022/05/11 12:01:46;;;;;;;2.98;1.37;;;;;;;26.11;18.97;99382.34;1756989;81;21868;-44
2022/05/11 12:04:33;;;;;;;4.70;1.72;;;;;;;26.56;17.70;99379.36;1720914;83;20936;-44
2022/05/11 12:15:39;;;;;;;5.05;1.50;;;;;;;26.15;18.65;99362.10;1720735;83;20897;-44
2022/05/11 12:18:28;;;;;;;2.72;1.30;;;;;;;26.48;18.82;99351.74;1720785;83;21008;-44
2022/05/11 12:20:55;;;;;;;3.10;1.50;;;;;;;26.65;17.96;99354.30;1720927;83;20988;-44
2022/05/11 12:23:28;;;;;;;2.33;1.35;;;;;;;26.85;17.44;99351.77;1720513;83;22063;-44
2022/05/11 12:25:58;;;;;;;5.33;1.60;;;;;;;26.98;16.54;99348.17;1720708;83;20976;-44
2022/05/11 12:28:41;;;;;;;2.22;1.52;;;;;;;26.99;17.00;99349.72;1720695;83;20987;-44
2022/05/11 12:31:08;;;;;;;4.42;1.72;;;;;;;27.05;17.07;99345.05;1720664;83;21578;-44
2022/05/11 12:33:39;;;;;;;2.42;1.22;;;;;;;27.15;16.31;99342.38;1720798;83;21029;-44